createdAt,value
2023-03-11T00:00:33.084Z,61.96
2023-03-11T00:02:04.838Z,61.96
2023-03-11T00:03:36.471Z,61.29
2023-03-11T00:05:08.682Z,61.45
2023-03-11T00:06:40.308Z,62.18
2023-03-11T00:08:13.218Z,62.07
2023-03-11T00:09:45.126Z,61.88
2023-03-11T00:11:16.658Z,61.98
2023-03-11T00:12:48.178Z,61.57
2023-03-11T00:14:20.064Z,62.16
2023-03-11T00:15:52.170Z,62.02
2023-03-11T00:17:23.728Z,61.96
2023-03-11T00:18:56.100Z,61.56
2023-03-11T00:20:28.541Z,62.35
2023-03-11T00:22:00.150Z,62.15
2023-03-11T00:23:32.816Z,62.18
2023-03-11T00:25:04.582Z,62.02
2023-03-11T00:26:36.119Z,62.27
2023-03-11T00:28:07.738Z,62.06
2023-03-11T00:29:39.457Z,62.31
2023-03-11T00:31:12.374Z,62.12
2023-03-11T00:32:44.613Z,62.31
2023-03-11T00:34:16.506Z,62.30
2023-03-11T00:35:48.663Z,62.28
2023-03-11T00:37:21.226Z,62.01
2023-03-11T00:38:54.246Z,62.08
2023-03-11T00:40:27.540Z,61.67
2023-03-11T00:41:59.281Z,62.14
2023-03-11T00:43:31.046Z,62.51
2023-03-11T00:45:02.667Z,61.28
2023-03-11T00:46:34.349Z,62.38
2023-03-11T00:48:06.055Z,62.09
2023-03-11T00:49:37.781Z,62.21
2023-03-11T00:51:11.801Z,61.97
2023-03-11T00:52:44.170Z,61.66
2023-03-11T00:54:15.708Z,61.75
2023-03-11T00:55:47.596Z,61.30
2023-03-11T00:57:19.183Z,61.84
2023-03-11T00:58:50.843Z,61.71
2023-03-11T01:00:22.801Z,62.44
2023-03-11T01:01:54.311Z,61.95
2023-03-11T01:03:25.850Z,61.74
2023-03-11T01:04:57.403Z,62.01
2023-03-11T01:06:39.196Z,62.04
2023-03-11T01:08:16.959Z,62.51
2023-03-11T01:09:48.793Z,61.98
2023-03-11T01:11:20.315Z,61.77
2023-03-11T01:12:51.804Z,61.94
2023-03-11T01:14:23.412Z,61.59
2023-03-11T01:15:55.814Z,62.04
2023-03-11T01:17:27.931Z,61.92
2023-03-11T01:18:59.449Z,61.77
2023-03-11T01:20:31.122Z,62.39
2023-03-11T01:22:02.687Z,61.65
2023-03-11T01:23:34.670Z,61.71
2023-03-11T01:25:06.284Z,62.35
2023-03-11T01:26:38.154Z,62.25
2023-03-11T01:28:09.724Z,62.48
2023-03-11T01:29:41.478Z,62.04
2023-03-11T01:31:13.082Z,61.67
2023-03-11T01:32:44.868Z,61.66
2023-03-11T01:34:16.541Z,61.38
2023-03-11T01:35:49.403Z,61.48
2023-03-11T01:37:21.219Z,61.41
2023-03-11T01:38:52.707Z,61.60
2023-03-11T01:40:24.614Z,61.89
2023-03-11T01:41:56.367Z,61.74
2023-03-11T01:43:36.946Z,62.18
2023-03-11T01:45:27.483Z,61.69
2023-03-11T01:47:02.297Z,61.63
2023-03-11T01:48:33.867Z,61.06
2023-03-11T01:50:06.567Z,61.43
2023-03-11T01:51:41.874Z,61.22
2023-03-11T01:53:13.417Z,61.23
2023-03-11T01:54:45.067Z,60.85
2023-03-11T01:56:17.462Z,61.38
2023-03-11T01:57:49.000Z,60.15
2023-03-11T01:59:21.814Z,60.67
2023-03-11T02:00:53.404Z,61.02
2023-03-11T02:02:32.709Z,60.97
2023-03-11T02:04:04.320Z,60.12
2023-03-11T02:05:36.590Z,60.06
2023-03-11T02:07:08.637Z,60.53
2023-03-11T02:08:40.944Z,60.52
2023-03-11T02:10:13.657Z,60.23
2023-03-11T02:11:45.243Z,60.03
2023-03-11T02:13:16.785Z,60.21
2023-03-11T02:14:49.245Z,60.36
2023-03-11T02:16:20.816Z,60.55
2023-03-11T02:17:52.860Z,60.56
2023-03-11T02:19:27.073Z,60.50
2023-03-11T02:21:01.342Z,60.56
2023-03-11T02:22:35.857Z,60.89
2023-03-11T02:24:10.340Z,60.20
2023-03-11T02:25:44.415Z,60.80
2023-03-11T02:27:17.037Z,60.20
2023-03-11T02:28:49.077Z,60.20
2023-03-11T02:30:21.046Z,60.11
2023-03-11T02:31:53.085Z,59.93
2023-03-11T02:33:25.350Z,60.37
2023-03-11T02:34:56.934Z,60.68
2023-03-11T02:36:54.599Z,60.17
2023-03-11T02:38:26.669Z,60.42
2023-03-11T02:40:18.120Z,60.51
2023-03-11T02:41:49.858Z,60.00
2023-03-11T02:43:26.339Z,60.53
2023-03-11T02:44:59.743Z,60.01
2023-03-11T02:46:31.448Z,60.45
2023-03-11T02:48:03.054Z,60.23
2023-03-11T02:49:34.599Z,60.39
2023-03-11T02:51:06.217Z,59.62
2023-03-11T02:52:37.847Z,60.11
2023-03-11T02:54:09.642Z,60.19
2023-03-11T02:55:41.939Z,60.05
2023-03-11T02:57:13.988Z,60.22
2023-03-11T02:58:45.604Z,59.86
2023-03-11T03:00:17.780Z,59.95
2023-03-11T03:01:49.413Z,60.65
2023-03-11T03:03:20.926Z,59.99
2023-03-11T03:04:52.486Z,59.85
2023-03-11T03:06:25.099Z,59.84
2023-03-11T03:07:56.765Z,59.96
2023-03-11T03:09:28.270Z,60.48
2023-03-11T03:11:00.061Z,59.97
2023-03-11T03:12:31.639Z,60.05
2023-03-11T03:14:04.980Z,60.48
2023-03-11T03:15:36.534Z,60.34
2023-03-11T03:17:08.326Z,60.03
2023-03-11T03:18:39.914Z,60.40
2023-03-11T03:20:12.670Z,60.21
2023-03-11T03:21:44.189Z,59.47
2023-03-11T03:23:16.219Z,60.29
2023-03-11T03:24:47.905Z,60.20
2023-03-11T03:26:19.953Z,59.92
2023-03-11T03:27:51.409Z,59.90
2023-03-11T03:29:23.817Z,59.66
2023-03-11T03:30:55.708Z,60.07
2023-03-11T03:32:27.311Z,60.06
2023-03-11T03:33:58.808Z,60.46
2023-03-11T03:35:30.970Z,60.51
2023-03-11T03:37:02.624Z,59.58
2023-03-11T03:38:34.250Z,59.94
2023-03-11T03:40:08.049Z,59.94
2023-03-11T03:41:39.600Z,60.10
2023-03-11T03:43:15.560Z,59.63
2023-03-11T03:44:52.831Z,60.09
2023-03-11T03:46:30.084Z,59.40
2023-03-11T03:48:07.470Z,59.74
2023-03-11T03:49:39.567Z,59.48
2023-03-11T03:51:12.214Z,60.20
2023-03-11T03:52:43.759Z,60.08
2023-03-11T03:54:15.538Z,60.03
2023-03-11T03:55:47.116Z,60.21
2023-03-11T03:57:18.782Z,59.86
2023-03-11T03:58:50.371Z,60.56
2023-03-11T04:00:22.003Z,60.24
2023-03-11T04:01:53.586Z,59.89
2023-03-11T04:03:25.570Z,60.62
2023-03-11T04:04:57.404Z,60.04
2023-03-11T04:06:29.088Z,60.01
2023-03-11T04:08:00.884Z,60.63
2023-03-11T04:09:34.533Z,60.55
2023-03-11T04:11:07.872Z,60.09
2023-03-11T04:12:39.489Z,60.11
2023-03-11T04:14:11.035Z,59.94
2023-03-11T04:15:42.638Z,60.65
2023-03-11T04:17:14.713Z,59.91
2023-03-11T04:18:47.474Z,60.20
2023-03-11T04:20:19.284Z,60.47
2023-03-11T04:21:52.061Z,59.92
2023-03-11T04:23:23.674Z,60.24
2023-03-11T04:24:55.328Z,60.05
2023-03-11T04:26:26.951Z,60.55
2023-03-11T04:27:58.533Z,60.72
2023-03-11T04:29:36.556Z,60.19
2023-03-11T04:31:08.298Z,60.30
2023-03-11T04:32:39.836Z,60.20
2023-03-11T04:34:11.915Z,60.35
2023-03-11T04:35:43.668Z,60.62
2023-03-11T04:37:15.387Z,60.36
2023-03-11T04:38:46.964Z,60.60
2023-03-11T04:40:18.763Z,60.51
2023-03-11T04:41:50.522Z,60.64
2023-03-11T04:43:22.156Z,60.51
2023-03-11T04:44:54.579Z,60.55
2023-03-11T04:46:26.591Z,61.05
2023-03-11T04:47:58.164Z,61.04
2023-03-11T04:49:30.599Z,60.82
2023-03-11T04:51:02.057Z,60.63
2023-03-11T04:52:33.804Z,60.57
2023-03-11T04:54:05.563Z,60.32
2023-03-11T04:55:37.270Z,60.13
2023-03-11T04:57:08.800Z,60.34
2023-03-11T04:58:40.382Z,60.47
2023-03-11T05:00:12.245Z,61.02
2023-03-11T05:01:43.881Z,60.07
2023-03-11T05:03:15.560Z,60.73
2023-03-11T05:04:47.558Z,60.88
2023-03-11T05:06:19.270Z,60.23
2023-03-11T05:07:50.982Z,60.35
2023-03-11T05:09:22.561Z,60.16
2023-03-11T05:10:54.248Z,60.57
2023-03-11T05:12:25.906Z,59.97
2023-03-11T05:13:57.641Z,60.22
2023-03-11T05:15:31.333Z,60.28
2023-03-11T05:17:03.020Z,60.09
2023-03-11T05:18:34.799Z,60.41
2023-03-11T05:20:07.743Z,60.42
2023-03-11T05:21:39.410Z,60.37
2023-03-11T05:23:11.180Z,60.32
2023-03-11T05:24:43.292Z,60.35
2023-03-11T05:26:15.315Z,60.79
2023-03-11T05:27:47.118Z,60.05
2023-03-11T05:29:18.965Z,60.23
2023-03-11T05:30:51.004Z,60.17
2023-03-11T05:32:23.279Z,60.01
2023-03-11T05:33:55.529Z,60.39
2023-03-11T05:35:27.186Z,59.64
2023-03-11T05:37:00.435Z,59.89
2023-03-11T05:38:33.013Z,59.72
2023-03-11T05:40:07.517Z,59.67
2023-03-11T05:41:39.120Z,60.23
2023-03-11T05:43:10.809Z,59.75
2023-03-11T05:44:42.547Z,60.20
2023-03-11T05:46:14.278Z,59.69
2023-03-11T05:47:45.907Z,60.20
2023-03-11T05:49:17.485Z,59.62
2023-03-11T05:50:50.293Z,60.44
2023-03-11T05:52:21.915Z,59.81
2023-03-11T05:53:53.675Z,59.84
2023-03-11T05:55:25.336Z,59.77
2023-03-11T05:56:58.036Z,59.61
2023-03-11T05:58:30.341Z,60.16
2023-03-11T06:00:02.395Z,60.18
2023-03-11T06:01:34.471Z,59.92
2023-03-11T06:03:06.281Z,60.60
2023-03-11T06:04:38.361Z,60.42
2023-03-11T06:06:11.138Z,60.08
2023-03-11T06:07:42.834Z,60.06
2023-03-11T06:09:14.717Z,60.20
2023-03-11T06:10:48.857Z,59.97
2023-03-11T06:12:21.176Z,59.36
2023-03-11T06:13:54.945Z,59.67
2023-03-11T06:15:27.501Z,59.72
2023-03-11T06:16:59.951Z,59.87
2023-03-11T06:18:32.598Z,60.21
2023-03-11T06:20:06.330Z,60.75
2023-03-11T06:21:38.129Z,60.67
2023-03-11T06:23:10.704Z,60.54
2023-03-11T06:24:42.410Z,60.84
2023-03-11T06:26:14.533Z,60.93
2023-03-11T06:27:49.560Z,60.83
2023-03-11T06:29:24.534Z,60.89
2023-03-11T06:31:01.845Z,60.46
2023-03-11T06:32:35.264Z,59.99
2023-03-11T06:34:06.979Z,60.05
2023-03-11T06:35:38.680Z,60.50
2023-03-11T06:37:10.294Z,60.53
2023-03-11T06:38:41.869Z,60.07
2023-03-11T06:40:14.096Z,60.12
2023-03-11T06:41:45.694Z,59.62
2023-03-11T06:43:17.254Z,59.58
2023-03-11T06:44:48.873Z,59.92
2023-03-11T06:46:21.842Z,60.22
2023-03-11T06:47:53.416Z,60.04
2023-03-11T06:49:25.119Z,59.73
2023-03-11T06:51:00.421Z,60.33
2023-03-11T06:52:33.644Z,60.29
2023-03-11T06:54:08.722Z,60.36
2023-03-11T06:55:49.938Z,59.85
2023-03-11T06:57:21.854Z,59.77
2023-03-11T06:58:54.470Z,59.91
2023-03-11T07:00:26.115Z,59.55
2023-03-11T07:01:58.991Z,59.51
2023-03-11T07:03:30.593Z,60.09
2023-03-11T07:05:02.312Z,59.96
2023-03-11T07:06:34.467Z,59.33
2023-03-11T07:08:06.217Z,60.13
2023-03-11T07:09:37.892Z,60.31
2023-03-11T07:11:10.391Z,59.90
2023-03-11T07:12:42.127Z,59.71
2023-03-11T07:14:14.301Z,59.44
2023-03-11T07:15:45.942Z,59.47
2023-03-11T07:17:17.779Z,59.83
2023-03-11T07:18:49.653Z,59.75
2023-03-11T07:20:22.328Z,60.24
2023-03-11T07:21:54.086Z,59.92
2023-03-11T07:23:25.984Z,60.00
2023-03-11T07:25:02.271Z,60.26
2023-03-11T07:26:35.648Z,60.06
2023-03-11T07:28:07.396Z,60.27
2023-03-11T07:29:39.353Z,61.06
2023-03-11T07:31:11.893Z,60.55
2023-03-11T07:32:43.527Z,60.75
2023-03-11T07:34:15.352Z,60.88
2023-03-11T07:35:49.428Z,61.05
2023-03-11T07:37:21.167Z,61.00
2023-03-11T07:38:56.863Z,60.77
2023-03-11T07:40:28.606Z,60.79
2023-03-11T07:42:00.490Z,60.87
2023-03-11T07:43:32.722Z,60.96
2023-03-11T07:45:04.443Z,60.90
2023-03-11T07:46:37.285Z,60.79
2023-03-11T07:48:09.010Z,61.00
2023-03-11T07:49:41.064Z,61.17
2023-03-11T07:51:17.314Z,60.95
2023-03-11T07:53:04.957Z,60.96
2023-03-11T07:54:40.148Z,60.83
2023-03-11T07:56:15.915Z,60.72
2023-03-11T08:00:54.069Z,60.66
2023-03-11T08:01:51.713Z,60.71
2023-03-11T08:03:32.680Z,60.35
2023-03-11T08:05:07.989Z,60.05
2023-03-11T08:06:41.629Z,59.68
2023-03-11T08:08:14.245Z,59.27
2023-03-11T08:09:57.224Z,59.05
2023-03-11T08:11:29.163Z,58.97
2023-03-11T08:13:00.707Z,58.95
2023-03-11T08:14:32.274Z,58.86
2023-03-11T08:16:05.098Z,58.57
2023-03-11T08:17:36.876Z,58.36
2023-03-11T08:19:10.759Z,58.39
2023-03-11T08:20:42.682Z,57.89
2023-03-11T08:22:14.365Z,58.09
2023-03-11T08:23:49.118Z,57.65
2023-03-11T08:25:21.123Z,57.59
2023-03-11T08:26:53.120Z,57.35
2023-03-11T08:28:24.811Z,56.98
2023-03-11T08:29:56.724Z,56.96
2023-03-11T08:31:29.663Z,56.92
2023-03-11T08:33:01.265Z,56.78
2023-03-11T08:34:35.277Z,56.38
2023-03-11T08:36:07.257Z,56.24
2023-03-11T08:37:38.919Z,56.10
2023-03-11T08:39:10.797Z,55.96
2023-03-11T08:40:42.510Z,55.66
2023-03-11T08:42:14.778Z,55.36
2023-03-11T08:43:47.170Z,55.32
2023-03-11T08:45:19.186Z,55.58
2023-03-11T08:46:51.254Z,55.24
2023-03-11T08:48:25.713Z,55.27
2023-03-11T08:49:57.296Z,55.05
2023-03-11T08:51:29.602Z,54.87
2023-03-11T08:53:03.296Z,54.53
2023-03-11T08:54:35.223Z,54.28
2023-03-11T08:56:07.053Z,53.93
2023-03-11T08:57:38.798Z,54.06
2023-03-11T08:59:10.721Z,53.91
2023-03-11T09:00:43.284Z,53.51
2023-03-11T09:02:15.257Z,53.46
2023-03-11T09:03:47.128Z,53.19
2023-03-11T09:05:19.220Z,53.08
2023-03-11T09:06:50.814Z,52.91
2023-03-11T09:08:22.865Z,52.72
2023-03-11T09:09:55.026Z,52.71
2023-03-11T09:11:26.967Z,53.09
2023-03-11T09:12:58.609Z,52.76
2023-03-11T09:14:30.309Z,53.02
2023-03-11T09:16:02.343Z,52.93
2023-03-11T09:17:36.496Z,52.74
2023-03-11T09:19:29.779Z,52.65
2023-03-11T09:21:23.507Z,52.36
2023-03-11T09:26:14.768Z,51.94
2023-03-11T09:27:48.825Z,52.04
2023-03-11T09:29:33.504Z,51.91
2023-03-11T09:31:05.690Z,51.84
2023-03-11T09:32:37.725Z,51.88
2023-03-11T09:34:10.630Z,51.66
2023-03-11T09:35:43.118Z,51.49
2023-03-11T09:37:15.448Z,51.40
2023-03-11T09:38:47.765Z,51.42
2023-03-11T09:40:20.601Z,51.31
2023-03-11T09:41:59.351Z,51.19
2023-03-11T09:43:36.054Z,51.03
2023-03-11T09:45:20.547Z,50.96
2023-03-11T09:47:11.386Z,50.79
2023-03-11T09:48:49.572Z,50.44
2023-03-11T09:50:26.897Z,50.52
2023-03-11T09:52:02.346Z,50.37
2023-03-11T09:53:36.564Z,50.27
2023-03-11T09:55:13.335Z,50.14
2023-03-11T09:56:45.540Z,49.98
2023-03-11T09:58:19.404Z,49.73
2023-03-11T09:59:51.383Z,49.50
2023-03-11T10:01:30.222Z,49.63
2023-03-11T10:03:02.046Z,49.31
2023-03-11T10:04:36.344Z,49.16
2023-03-11T10:06:18.037Z,49.15
2023-03-11T10:07:52.320Z,48.96
2023-03-11T10:09:29.610Z,49.03
2023-03-11T10:11:21.805Z,48.98
2023-03-11T10:12:56.785Z,48.81
2023-03-11T10:14:43.113Z,48.62
2023-03-11T10:16:35.016Z,48.46
2023-03-11T10:18:30.352Z,48.20
2023-03-11T10:20:13.441Z,48.15
2023-03-11T10:21:51.211Z,48.32
2023-03-11T10:23:58.707Z,48.16
2023-03-11T10:25:48.936Z,48.27
2023-03-11T10:27:21.906Z,48.18
2023-03-11T10:28:57.448Z,48.23
2023-03-11T10:30:32.240Z,48.19
2023-03-11T10:32:07.962Z,48.38
2023-03-11T10:33:46.613Z,48.25
2023-03-11T10:35:20.800Z,47.97
2023-03-11T10:36:54.264Z,47.97
2023-03-11T10:38:49.127Z,48.50
2023-03-11T10:40:31.074Z,48.28
2023-03-11T10:42:05.927Z,48.07
2023-03-11T10:43:39.202Z,48.58
2023-03-11T10:45:14.570Z,48.27
2023-03-11T10:46:46.700Z,48.01
2023-03-11T10:48:19.300Z,48.26
2023-03-11T10:49:51.075Z,48.46
2023-03-11T10:51:24.275Z,48.23
2023-03-11T10:53:05.027Z,48.36
2023-03-11T10:54:39.852Z,48.22
2023-03-11T10:56:16.565Z,48.22
2023-03-11T10:57:48.600Z,48.05
2023-03-11T10:59:24.496Z,48.10
2023-03-11T11:01:02.894Z,48.04
2023-03-11T11:02:43.629Z,48.10
2023-03-11T11:04:24.204Z,47.84
2023-03-11T11:05:59.781Z,47.73
2023-03-11T11:07:38.462Z,47.41
2023-03-11T11:09:10.016Z,47.44
2023-03-11T11:10:55.527Z,47.29
2023-03-11T11:12:27.350Z,47.16
2023-03-11T11:13:59.510Z,47.05
2023-03-11T11:15:40.827Z,46.99
2023-03-11T11:17:27.380Z,46.88
2023-03-11T11:18:58.968Z,46.96
2023-03-11T11:20:30.767Z,46.62
2023-03-11T11:22:04.431Z,46.65
2023-03-11T11:23:43.168Z,46.74
2023-03-11T11:25:24.720Z,46.87
2023-03-11T11:27:06.405Z,46.63
2023-03-11T11:28:38.084Z,46.29
2023-03-11T11:30:09.856Z,46.41
2023-03-11T11:31:42.464Z,46.28
2023-03-11T11:33:53.150Z,46.22
2023-03-11T11:35:25.115Z,45.89
2023-03-11T11:36:57.368Z,45.67
2023-03-11T11:38:29.401Z,45.81
2023-03-11T11:40:14.775Z,45.94
2023-03-11T11:41:46.656Z,45.57
2023-03-11T11:43:19.090Z,45.43
2023-03-11T11:44:53.246Z,45.36
2023-03-11T11:46:34.001Z,45.29
2023-03-11T11:48:13.300Z,45.37
2023-03-11T11:51:07.774Z,45.08
2023-03-11T11:52:14.513Z,45.32
2023-03-11T11:53:47.066Z,45.13
2023-03-11T11:55:26.856Z,45.26
2023-03-11T11:57:02.263Z,45.04
2023-03-11T11:58:38.772Z,45.19
2023-03-11T12:00:31.606Z,45.24
2023-03-11T12:02:24.133Z,45.26
2023-03-11T12:03:55.863Z,44.90
2023-03-11T12:05:30.226Z,44.90
2023-03-11T12:07:10.915Z,44.74
2023-03-11T12:08:54.814Z,44.71
2023-03-11T12:10:32.457Z,44.60
2023-03-11T12:12:43.176Z,44.45
2023-03-11T12:14:18.589Z,44.39
2023-03-11T12:15:54.574Z,44.40
2023-03-11T12:17:26.343Z,44.22
2023-03-11T12:19:13.301Z,44.30
2023-03-11T12:20:47.151Z,44.38
2023-03-11T12:22:25.947Z,44.37
2023-03-11T12:24:16.766Z,44.36
2023-03-11T12:26:03.760Z,44.63
2023-03-11T12:27:47.258Z,44.59
2023-03-11T12:29:19.841Z,44.28
2023-03-11T12:30:54.509Z,44.37
2023-03-11T12:32:40.657Z,44.21
2023-03-11T12:34:13.259Z,44.08
2023-03-11T12:35:49.150Z,44.13
2023-03-11T12:37:21.607Z,43.83
2023-03-11T12:38:53.864Z,44.04
2023-03-11T12:40:44.504Z,43.81
2023-03-11T12:42:17.665Z,43.76
2023-03-11T12:43:52.459Z,43.75
2023-03-11T12:45:43.081Z,43.68
2023-03-11T12:47:14.832Z,43.50
2023-03-11T12:48:47.608Z,43.60
2023-03-11T12:50:39.744Z,43.48
2023-03-11T12:52:11.793Z,43.38
2023-03-11T12:53:50.026Z,43.43
2023-03-11T12:55:25.158Z,43.25
2023-03-11T12:57:00.447Z,43.18
2023-03-11T12:58:35.316Z,43.26
2023-03-11T13:00:23.942Z,43.21
2023-03-11T13:02:03.805Z,43.05
2023-03-11T13:03:44.343Z,43.03
2023-03-11T13:05:17.342Z,43.17
2023-03-11T13:07:04.155Z,42.99
2023-03-11T13:08:45.941Z,43.19
2023-03-11T13:10:17.769Z,43.02
2023-03-11T13:11:49.646Z,43.18
2023-03-11T13:13:32.486Z,42.89
2023-03-11T13:15:22.467Z,42.77
2023-03-11T13:16:54.670Z,43.10
2023-03-11T13:18:27.098Z,42.77
2023-03-11T13:19:59.023Z,42.54
2023-03-11T13:21:41.812Z,42.82
2023-03-11T13:23:13.475Z,42.58
2023-03-11T13:24:51.788Z,42.75
2023-03-11T13:26:30.797Z,42.68
2023-03-11T13:28:16.382Z,42.95
2023-03-11T13:29:48.322Z,42.56
2023-03-11T13:31:21.066Z,42.56
2023-03-11T13:33:20.423Z,42.79
2023-03-11T13:34:58.580Z,43.12
2023-03-11T13:36:34.874Z,42.62
2023-03-11T13:38:25.589Z,42.32
2023-03-11T13:40:00.611Z,42.98
2023-03-11T13:41:35.210Z,43.07
2023-03-11T13:43:15.142Z,43.16
2023-03-11T13:44:46.908Z,42.79
2023-03-11T13:46:26.526Z,43.14
2023-03-11T13:48:06.044Z,43.40
2023-03-11T13:49:41.619Z,42.95
2023-03-11T13:51:26.292Z,43.01
2023-03-11T13:52:59.458Z,43.56
2023-03-11T13:54:31.153Z,43.73
2023-03-11T13:56:03.251Z,43.73
2023-03-11T13:57:41.909Z,43.49
2023-03-11T13:59:33.181Z,43.71
2023-03-11T14:01:05.325Z,43.73
2023-03-11T14:02:37.130Z,43.86
2023-03-11T14:04:16.127Z,43.93
2023-03-11T14:05:48.958Z,44.38
2023-03-11T14:07:24.532Z,44.29
2023-03-11T14:08:56.998Z,44.45
2023-03-11T14:10:29.683Z,44.76
2023-03-11T14:12:04.589Z,45.20
2023-03-11T14:13:50.112Z,45.12
2023-03-11T14:15:28.622Z,45.39
2023-03-11T14:17:09.652Z,45.44
2023-03-11T14:18:59.176Z,45.78
2023-03-11T14:20:53.255Z,45.72
2023-03-11T14:22:25.167Z,45.76
2023-03-11T14:24:03.617Z,45.74
2023-03-11T14:25:39.988Z,45.71
2023-03-11T14:27:14.959Z,45.90
2023-03-11T14:28:56.885Z,45.82
2023-03-11T14:30:29.671Z,45.76
2023-03-11T14:32:01.988Z,46.21
2023-03-11T14:33:33.952Z,46.05
2023-03-11T14:35:18.937Z,46.01
2023-03-11T14:36:54.378Z,46.12
2023-03-11T14:38:27.383Z,46.08
2023-03-11T14:39:59.185Z,46.03
2023-03-11T14:41:31.217Z,46.30
2023-03-11T14:43:04.273Z,46.56
2023-03-11T14:44:36.876Z,46.62
2023-03-11T14:46:08.850Z,46.58
2023-03-11T14:47:41.156Z,46.87
2023-03-11T14:49:14.691Z,46.82
2023-03-11T14:50:49.575Z,47.00
2023-03-11T14:52:22.364Z,47.08
2023-03-11T14:53:58.905Z,47.14
2023-03-11T14:55:35.277Z,47.22
2023-03-11T14:57:11.639Z,47.55
2023-03-11T14:59:11.496Z,47.51
2023-03-11T15:00:46.363Z,47.64
2023-03-11T15:02:21.148Z,47.45
2023-03-11T15:03:56.920Z,47.48
2023-03-11T15:05:33.803Z,47.49
2023-03-11T15:07:06.022Z,47.70
2023-03-11T15:08:42.746Z,47.69
2023-03-11T15:10:15.009Z,47.70
2023-03-11T15:11:48.046Z,47.70
2023-03-11T15:13:19.706Z,47.76
2023-03-11T15:14:51.825Z,47.71
2023-03-11T15:16:23.503Z,47.74
2023-03-11T15:17:56.133Z,47.78
2023-03-11T15:19:27.775Z,47.75
2023-03-11T15:21:05.920Z,48.24
2023-03-11T15:22:42.776Z,48.02
2023-03-11T15:24:27.551Z,47.77
2023-03-11T15:26:02.449Z,47.69
2023-03-11T15:27:35.055Z,48.36
2023-03-11T15:29:16.020Z,48.42
2023-03-11T15:30:48.222Z,48.27
2023-03-11T15:32:31.907Z,48.30
2023-03-11T15:34:19.121Z,48.28
2023-03-11T15:35:50.907Z,48.45
2023-03-11T15:37:26.633Z,48.79
2023-03-11T15:39:11.056Z,49.53
2023-03-11T15:40:50.870Z,49.33
2023-03-11T15:42:26.180Z,48.81
2023-03-11T15:44:03.186Z,49.16
2023-03-11T15:45:34.832Z,49.20
2023-03-11T15:47:09.102Z,49.69
2023-03-11T15:48:43.315Z,49.78
2023-03-11T15:50:23.991Z,49.31
2023-03-11T15:51:59.860Z,49.95
2023-03-11T15:53:31.693Z,49.77
2023-03-11T15:55:03.773Z,50.04
2023-03-11T15:56:35.673Z,49.76
2023-03-11T15:58:08.970Z,49.99
2023-03-11T15:59:44.123Z,50.00
2023-03-11T16:01:16.903Z,49.59
2023-03-11T16:02:51.880Z,49.50
2023-03-11T16:04:27.453Z,49.96
2023-03-11T16:06:40.540Z,50.24
2023-03-11T16:08:12.516Z,50.55
2023-03-11T16:09:44.170Z,50.12
2023-03-11T16:11:16.097Z,50.53
2023-03-11T16:12:48.136Z,50.74
2023-03-11T16:14:20.236Z,50.89
2023-03-11T16:15:51.836Z,50.87
2023-03-11T16:17:24.349Z,50.81
2023-03-11T16:18:56.096Z,50.79
2023-03-11T16:20:28.964Z,50.60
2023-03-11T16:22:00.567Z,50.51
2023-03-11T16:23:44.820Z,50.67
2023-03-11T16:25:24.950Z,50.80
2023-03-11T16:27:34.787Z,50.94
2023-03-11T16:29:18.956Z,51.10
2023-03-11T16:30:54.446Z,50.68
2023-03-11T16:32:26.434Z,50.95
2023-03-11T16:33:58.416Z,50.91
2023-03-11T16:35:54.041Z,51.44
2023-03-11T16:37:26.876Z,51.04
2023-03-11T16:39:14.849Z,51.36
2023-03-11T16:40:47.440Z,50.79
2023-03-11T16:42:43.905Z,50.79
2023-03-11T16:44:15.646Z,51.22
2023-03-11T16:45:50.030Z,51.35
2023-03-11T16:47:21.797Z,51.15
2023-03-11T16:48:54.206Z,51.62
2023-03-11T16:50:27.032Z,51.30
2023-03-11T16:52:08.243Z,51.69
2023-03-11T16:53:44.808Z,51.08
2023-03-11T16:55:16.731Z,51.99
2023-03-11T16:59:31.460Z,52.20
2023-03-11T17:01:04.087Z,52.14
2023-03-11T17:02:36.476Z,52.50
2023-03-11T17:04:08.572Z,52.42
2023-03-11T17:05:40.805Z,52.68
2023-03-11T17:07:12.604Z,52.65
2023-03-11T17:08:49.472Z,52.49
2023-03-11T17:10:21.403Z,52.83
2023-03-11T17:11:53.658Z,53.12
2023-03-11T17:13:26.035Z,52.76
2023-03-11T17:14:58.045Z,53.25
2023-03-11T17:16:29.658Z,53.33
2023-03-11T17:18:02.146Z,53.03
2023-03-11T17:19:34.049Z,53.42
2023-03-11T17:21:10.944Z,53.72
2023-03-11T17:22:45.071Z,52.73
2023-03-11T17:24:17.107Z,53.57
2023-03-11T17:25:48.961Z,52.98
2023-03-11T17:27:21.368Z,53.02
2023-03-11T17:28:53.574Z,52.84
2023-03-11T17:30:36.397Z,53.25
2023-03-11T17:32:17.000Z,53.31
2023-03-11T17:33:48.846Z,53.69
2023-03-11T17:35:20.907Z,52.92
2023-03-11T17:36:52.989Z,53.22
2023-03-11T17:38:24.503Z,53.00
2023-03-11T17:39:56.228Z,53.52
2023-03-11T17:41:28.294Z,53.43
2023-03-11T17:43:00.674Z,53.28
2023-03-11T17:44:48.504Z,52.73
2023-03-11T17:46:25.433Z,52.81
2023-03-11T17:48:36.693Z,53.16
2023-03-11T17:50:09.298Z,53.27
2023-03-11T17:51:41.402Z,53.51
2023-03-11T17:53:13.624Z,53.02
2023-03-11T17:54:45.335Z,53.41
2023-03-11T17:56:17.744Z,53.08
2023-03-11T17:57:49.887Z,53.35
2023-03-11T17:59:21.870Z,53.44
2023-03-11T18:00:54.133Z,53.38
2023-03-11T18:02:26.627Z,53.16
2023-03-11T18:03:58.769Z,53.37
2023-03-11T18:05:31.093Z,53.39
2023-03-11T18:07:03.478Z,53.21
2023-03-11T18:08:35.555Z,53.31
2023-03-11T18:10:08.336Z,53.61
2023-03-11T18:11:40.565Z,53.22
2023-03-11T18:13:12.763Z,53.62
2023-03-11T18:14:44.423Z,53.49
2023-03-11T18:16:17.511Z,53.58
2023-03-11T18:17:49.308Z,53.55
2023-03-11T18:19:22.696Z,53.57
2023-03-11T18:20:54.624Z,53.47
2023-03-11T18:22:27.498Z,53.69
2023-03-11T18:23:59.900Z,53.46
2023-03-11T18:25:32.388Z,53.41
2023-03-11T18:27:04.107Z,53.76
2023-03-11T18:28:36.122Z,53.63
2023-03-11T18:30:08.815Z,53.75
2023-03-11T18:31:40.596Z,53.78
2023-03-11T18:33:12.440Z,53.61
2023-03-11T18:34:44.386Z,53.99
2023-03-11T18:36:17.010Z,53.57
2023-03-11T18:37:48.794Z,53.66
2023-03-11T18:39:20.691Z,53.27
2023-03-11T18:40:58.850Z,53.52
2023-03-11T18:42:30.388Z,53.63
2023-03-11T18:44:02.405Z,53.63
2023-03-11T18:45:34.646Z,53.56
2023-03-11T18:47:07.052Z,53.87
2023-03-11T18:48:38.784Z,53.60
2023-03-11T18:50:11.269Z,53.52
2023-03-11T18:51:43.370Z,53.64
2023-03-11T18:53:15.104Z,53.88
2023-03-11T18:54:46.729Z,53.51
2023-03-11T18:56:18.492Z,53.50
2023-03-11T18:57:50.410Z,53.97
2023-03-11T18:59:23.633Z,54.01
2023-03-11T19:00:56.111Z,53.83
2023-03-11T19:02:31.516Z,53.68
2023-03-11T19:04:03.924Z,53.80
2023-03-11T19:05:36.102Z,53.99
2023-03-11T19:07:08.845Z,53.42
2023-03-11T19:08:40.596Z,53.57
2023-03-11T19:10:12.594Z,53.45
2023-03-11T19:11:45.259Z,53.09
2023-03-11T19:13:19.487Z,53.53
2023-03-11T19:14:51.648Z,52.95
2023-03-11T19:16:24.383Z,52.82
2023-03-11T19:18:06.254Z,52.90
2023-03-11T19:19:39.272Z,53.47
2023-03-11T19:21:12.264Z,52.96
2023-03-11T19:22:43.943Z,53.60
2023-03-11T19:24:15.629Z,53.16
2023-03-11T19:26:02.518Z,53.58
2023-03-11T19:27:39.469Z,53.80
2023-03-11T19:29:15.166Z,53.39
2023-03-11T19:30:54.655Z,53.39
2023-03-11T19:32:26.710Z,53.91
2023-03-11T19:33:59.730Z,53.72
2023-03-11T19:35:31.438Z,53.88
2023-03-11T19:37:03.288Z,53.39
2023-03-11T19:38:34.798Z,53.45
2023-03-11T19:40:07.881Z,53.80
2023-03-11T19:41:41.012Z,53.83
2023-03-11T19:43:14.966Z,53.63
2023-03-11T19:44:46.835Z,53.83
2023-03-11T19:46:25.192Z,53.56
2023-03-11T19:48:04.551Z,53.64
2023-03-11T19:49:44.554Z,54.14
2023-03-11T20:04:18.129Z,53.26
2023-03-11T20:05:59.763Z,53.77
2023-03-11T20:07:36.487Z,53.74
2023-03-11T20:09:11.360Z,53.56
2023-03-11T20:10:44.355Z,53.40
2023-03-11T20:12:16.324Z,53.87
2023-03-11T20:13:48.849Z,53.51
2023-03-11T20:15:20.410Z,53.69
2023-03-11T20:16:53.135Z,53.06
2023-03-11T20:18:24.827Z,53.34
2023-03-11T20:19:56.568Z,53.30
2023-03-11T20:21:28.370Z,53.29
2023-03-11T20:23:00.284Z,54.01
2023-03-11T20:24:32.659Z,53.43
2023-03-11T20:26:05.168Z,53.38
2023-03-11T20:27:36.796Z,53.45
2023-03-11T20:29:08.565Z,53.85
2023-03-11T20:30:40.438Z,53.81
2023-03-11T20:32:12.335Z,53.40
2023-03-11T20:33:44.528Z,53.42
2023-03-11T20:35:16.822Z,54.08
2023-03-11T20:36:49.641Z,53.43
2023-03-11T20:38:21.478Z,53.73
2023-03-11T20:39:53.419Z,53.21
2023-03-11T20:41:26.301Z,53.29